createdAt,value
2018-08-09T00:02:01.353Z,8.32
2018-08-09T00:07:56.293Z,7.99
2018-08-09T00:13:51.280Z,7.71
2018-08-09T00:19:46.845Z,7.71
2018-08-09T00:25:41.869Z,7.71
2018-08-09T00:31:36.924Z,7.71
2018-08-09T00:37:31.316Z,8.93
2018-08-09T00:43:26.321Z,8.33
2018-08-09T00:49:21.343Z,8.24
2018-08-09T00:55:16.326Z,9.27
2018-08-09T01:01:11.339Z,8.9
2018-08-09T01:07:06.325Z,8.43
2018-08-09T01:13:01.323Z,9.02
2018-08-09T01:18:56.406Z,8.34
2018-08-09T01:24:51.329Z,8.52
2018-08-09T01:30:46.344Z,8.93
2018-08-09T01:36:41.376Z,8.71
2018-08-09T01:42:36.357Z,8.53
2018-08-09T01:48:31.335Z,8.7
2018-08-09T01:54:26.370Z,8.46
2018-08-09T02:00:21.416Z,9.07
2018-08-09T02:06:16.372Z,8.78
2018-08-09T02:12:11.380Z,9.07
2018-08-09T02:18:06.372Z,8.68
2018-08-09T02:24:01.476Z,8.58
2018-08-09T02:29:56.395Z,9.35
2018-08-09T02:35:51.385Z,8.07
2018-08-09T02:41:46.394Z,9.3
2018-08-09T02:47:41.403Z,8.71
2018-08-09T02:53:36.395Z,9.38
2018-08-09T02:59:31.383Z,9.08
2018-08-09T03:05:26.385Z,9.26
2018-08-09T03:11:21.410Z,9.01
2018-08-09T03:17:16.426Z,9.59
2018-08-09T03:23:11.414Z,8.98
2018-08-09T03:29:06.422Z,8.78
2018-08-09T03:35:01.478Z,9.12
2018-08-09T03:40:56.435Z,9.25
2018-08-09T03:46:51.406Z,9.44
2018-08-09T03:52:46.434Z,9.29
2018-08-09T03:58:41.432Z,9.69
2018-08-09T04:04:36.456Z,9.94
2018-08-09T04:10:31.443Z,9.44
2018-08-09T04:16:26.560Z,9.42
2018-08-09T04:22:21.446Z,9.66
2018-08-09T04:28:16.437Z,9.33
2018-08-09T04:34:11.513Z,9.39
2018-08-09T04:40:06.541Z,9.99
2018-08-09T04:46:01.472Z,10.31
2018-08-09T04:51:56.469Z,10.2
2018-08-09T04:57:51.508Z,9.69
2018-08-09T05:03:47.032Z,9.67
2018-08-09T05:09:41.990Z,9.67
2018-08-09T05:15:36.969Z,9.67
2018-08-09T05:21:32.027Z,9.67
2018-08-09T05:27:27.022Z,9.67
2018-08-09T05:33:22.045Z,9.67
2018-08-09T05:39:17.041Z,9.67
2018-08-09T05:45:12.068Z,9.67
2018-08-09T05:51:07.073Z,9.67
2018-08-09T05:57:02.042Z,9.67
2018-08-09T06:02:57.025Z,9.67
2018-08-09T06:08:52.036Z,9.67
2018-08-09T06:14:47.063Z,9.67
2018-08-09T06:20:42.052Z,9.67
2018-08-09T06:26:37.156Z,9.67
2018-08-09T06:32:31.504Z,14.07
2018-08-09T06:38:26.573Z,11.13
2018-08-09T06:44:21.526Z,12.18
2018-08-09T06:50:16.537Z,12.27
2018-08-09T06:56:11.564Z,11.54
2018-08-09T07:02:06.598Z,11.48
2018-08-09T07:08:01.604Z,11.57
2018-08-09T07:13:56.585Z,13.03
2018-08-09T07:19:51.571Z,12.42
2018-08-09T07:25:46.563Z,13.6
2018-08-09T07:31:41.575Z,12.21
2018-08-09T07:37:36.603Z,15.4
2018-08-09T07:43:31.565Z,16.76
2018-08-09T07:49:26.678Z,14.92
2018-08-09T07:55:21.603Z,14.53
2018-08-09T08:01:16.581Z,13.67
2018-08-09T08:07:11.658Z,12.83
2018-08-09T08:13:06.607Z,13.04
2018-08-09T08:19:01.595Z,14.51
2018-08-09T08:24:56.651Z,13.51
2018-08-09T08:30:51.604Z,9.69
2018-08-09T08:36:46.605Z,11.79
2018-08-09T08:42:41.606Z,11.62
2018-08-09T08:48:36.633Z,12.05
2018-08-09T08:54:31.622Z,11.25
2018-08-09T09:00:26.626Z,12.4
2018-08-09T09:06:21.604Z,12.69
2018-08-09T09:12:16.638Z,12.46
2018-08-09T09:18:11.607Z,11.58
2018-08-09T09:24:06.626Z,11.17
2018-08-09T09:30:01.629Z,12.56
2018-08-09T09:35:56.624Z,11.48
2018-08-09T09:41:51.719Z,11.69
2018-08-09T09:47:46.657Z,11.75
2018-08-09T09:53:41.672Z,10.75
2018-08-09T09:59:36.638Z,11.74
2018-08-09T10:05:31.726Z,10.95
2018-08-09T10:11:26.644Z,9.28
2018-08-09T10:17:21.698Z,10.41
2018-08-09T10:23:16.662Z,9.27
2018-08-09T10:29:11.679Z,7.98
2018-08-09T10:35:06.675Z,10.63
2018-08-09T10:41:01.692Z,8.17
2018-08-09T10:46:56.701Z,9.64
2018-08-09T10:52:51.694Z,10.85
2018-08-09T10:58:46.682Z,9.72
2018-08-09T11:04:41.746Z,8.5
2018-08-09T11:10:36.708Z,9.29
2018-08-09T11:16:31.697Z,9.38
2018-08-09T11:22:26.703Z,8.67
2018-08-09T11:28:21.787Z,5.27
2018-08-09T11:34:16.759Z,8.47
2018-08-09T11:40:11.725Z,9.06
2018-08-09T11:46:06.736Z,7.75
2018-08-09T11:52:01.827Z,8.7
2018-08-09T11:57:56.778Z,4.43
2018-08-09T12:03:51.768Z,8.66
2018-08-09T12:09:46.744Z,9.86
2018-08-09T12:15:41.758Z,8.46
2018-08-09T12:21:36.801Z,10.23
2018-08-09T12:27:31.772Z,6.6
2018-08-09T12:33:26.739Z,10.23
2018-08-09T12:39:21.883Z,7.77
2018-08-09T12:45:17.232Z,7.14
2018-08-09T12:51:11.759Z,6.41
2018-08-09T12:57:06.781Z,5.17
2018-08-09T13:03:01.802Z,5.93
2018-08-09T13:08:56.769Z,7.25
2018-08-09T13:14:51.768Z,5.52
2018-08-09T13:20:46.810Z,7.12
2018-08-09T13:26:41.771Z,5.09
2018-08-09T13:32:36.788Z,6.3
2018-08-09T13:38:31.885Z,5.44
2018-08-09T13:44:26.803Z,5.87
2018-08-09T13:50:21.791Z,7.38
2018-08-09T13:56:16.799Z,7.48
2018-08-09T14:02:11.805Z,6.9
2018-08-09T14:08:06.806Z,7.39
2018-08-09T14:14:01.820Z,9.16
2018-08-09T14:19:56.876Z,6.8
2018-08-09T14:25:51.821Z,7.62
2018-08-09T14:31:46.871Z,8.98
2018-08-09T14:37:41.941Z,7.75
2018-08-09T14:43:36.828Z,6.8
2018-08-09T14:49:31.887Z,5.72
2018-08-09T14:55:26.844Z,9.73
2018-08-09T15:01:21.847Z,5.98
2018-08-09T15:07:16.840Z,11.21
2018-08-09T15:13:11.870Z,9.05
2018-08-09T15:19:06.868Z,7.97
2018-08-09T15:25:02.010Z,8.39
2018-08-09T15:30:56.921Z,18.52
2018-08-09T15:36:51.898Z,7.66
2018-08-09T15:42:46.867Z,10
2018-08-09T15:48:41.867Z,10.16
2018-08-09T15:54:36.882Z,12.53
2018-08-09T16:00:31.884Z,20.16
2018-08-09T16:06:26.878Z,8.43
2018-08-09T16:12:21.887Z,8.2
2018-08-09T16:18:16.879Z,5.33
2018-08-09T16:24:11.875Z,7.97
2018-08-09T16:30:06.942Z,8.46
2018-08-09T16:36:01.907Z,14.93
2018-08-09T16:41:56.896Z,11.81
2018-08-09T16:47:51.915Z,6.4
2018-08-09T16:53:46.936Z,5.83
2018-08-09T16:59:41.929Z,7.01
2018-08-09T17:05:36.914Z,12.93
2018-08-09T17:11:32.026Z,5.72
2018-08-09T17:17:26.933Z,5.99
2018-08-09T17:23:21.935Z,6.46
2018-08-09T17:29:16.967Z,7.04
2018-08-09T17:35:11.938Z,5.35
2018-08-09T17:41:06.980Z,8.39
2018-08-09T17:47:01.996Z,8.37
2018-08-09T17:52:56.949Z,6.15
2018-08-09T17:58:51.955Z,8.53
2018-08-09T18:04:46.987Z,10.01
2018-08-09T18:10:41.960Z,8.29
2018-08-09T18:16:37.007Z,8.9
2018-08-09T18:22:31.986Z,9.91
2018-08-09T18:28:26.971Z,10.36
2018-08-09T18:34:21.972Z,11.33
2018-08-09T18:40:17.002Z,11.8
2018-08-09T18:46:12.263Z,11.81
2018-08-09T18:52:07.516Z,11.81
2018-08-09T18:58:01.983Z,13.91
2018-08-09T19:03:56.988Z,12.66
2018-08-09T19:09:51.995Z,12.42
2018-08-09T19:15:46.989Z,12.95
2018-08-09T19:21:42.021Z,13.26
2018-08-09T19:27:37.051Z,11.43
2018-08-09T19:33:32.022Z,11.27
2018-08-09T19:39:27.025Z,11.42
2018-08-09T19:45:22.037Z,13.4
2018-08-09T19:51:17.052Z,13.84
2018-08-09T19:57:12.039Z,13.62
2018-08-09T20:03:07.046Z,13.84
2018-08-09T20:09:02.048Z,13.08
2018-08-09T20:14:57.030Z,12.04
2018-08-09T20:20:52.041Z,12.31
2018-08-09T20:26:47.040Z,13.67
2018-08-09T20:32:42.052Z,13.05
2018-08-09T20:38:37.072Z,12.48
2018-08-09T20:44:32.089Z,13.64
2018-08-09T20:50:27.071Z,13.6
2018-08-09T20:56:22.069Z,13.6
2018-08-09T21:02:17.072Z,13.77
2018-08-09T21:08:12.110Z,14.34
2018-08-09T21:14:07.061Z,13.85
2018-08-09T21:20:02.095Z,14.29
2018-08-09T21:25:57.076Z,13.74
2018-08-09T21:31:52.113Z,14.53
2018-08-09T21:37:47.088Z,14.86
2018-08-09T21:43:42.080Z,13.5
2018-08-09T21:49:37.105Z,14.93
2018-08-09T21:55:32.107Z,14.09
2018-08-09T22:01:27.102Z,13.96
2018-08-09T22:07:22.097Z,14.36
2018-08-09T22:13:17.140Z,14.81
2018-08-09T22:19:12.091Z,14.67
2018-08-09T22:25:07.113Z,14.05
2018-08-09T22:31:02.121Z,14.57
2018-08-09T22:36:57.198Z,15.04
2018-08-09T22:42:52.120Z,14.58
2018-08-09T22:48:47.147Z,13.93
2018-08-09T22:54:42.145Z,14.49
2018-08-09T23:00:37.140Z,14.7
2018-08-09T23:06:32.127Z,14.35
2018-08-09T23:12:27.143Z,13.68
2018-08-09T23:18:22.186Z,13.79
2018-08-09T23:24:17.170Z,14.51
2018-08-09T23:30:12.188Z,13.43
2018-08-09T23:36:07.154Z,15.15
2018-08-09T23:42:02.194Z,15.14
2018-08-09T23:47:57.753Z,15.14
2018-08-09T23:53:52.158Z,14.69
2018-08-09T23:59:47.212Z,12.63
